createdAt,value
2022-11-21T00:02:07.330Z,0.57
2022-11-21T00:07:09.344Z,0.90
2022-11-21T00:12:11.131Z,1.37
2022-11-21T00:17:12.908Z,1.30
2022-11-21T00:22:14.688Z,2.20
2022-11-21T00:27:16.732Z,2.50
2022-11-21T00:32:18.472Z,2.80
2022-11-21T00:37:20.501Z,3.03
2022-11-21T00:42:22.379Z,2.70
2022-11-21T00:47:24.136Z,2.40
2022-11-21T00:52:25.984Z,3.30
2022-11-21T00:57:27.760Z,2.90
2022-11-21T01:02:29.471Z,3.57
2022-11-21T01:07:31.432Z,2.60
2022-11-21T01:12:33.400Z,2.93
2022-11-21T01:17:35.180Z,2.80
2022-11-21T01:22:37.161Z,3.20
2022-11-21T01:27:39.243Z,3.00
2022-11-21T01:32:41.133Z,2.70
2022-11-21T01:37:43.146Z,2.73
2022-11-21T01:42:54.919Z,2.27
2022-11-21T01:47:56.851Z,2.43
2022-11-21T01:52:58.811Z,2.27
2022-11-21T01:58:01.822Z,3.17
2022-11-21T02:03:10.486Z,2.40
2022-11-21T02:08:20.172Z,2.53
2022-11-21T02:13:22.776Z,2.70
2022-11-21T02:18:24.535Z,2.07
2022-11-21T02:23:37.426Z,2.40
2022-11-21T02:28:39.539Z,2.43
2022-11-21T02:33:41.430Z,2.37
2022-11-21T02:38:43.339Z,2.13
2022-11-21T02:43:51.436Z,2.30
2022-11-21T02:48:54.727Z,3.20
2022-11-21T02:53:56.537Z,2.70
2022-11-21T02:58:58.627Z,2.33
2022-11-21T03:04:00.383Z,2.23
2022-11-21T03:09:02.312Z,2.87
2022-11-21T03:14:04.121Z,2.30
2022-11-21T03:19:05.924Z,1.83
2022-11-21T03:24:08.139Z,2.87
2022-11-21T03:29:10.167Z,3.47
2022-11-21T03:34:12.477Z,2.07
2022-11-21T03:39:14.266Z,2.00
2022-11-21T03:44:16.840Z,1.93
2022-11-21T03:49:18.883Z,2.00
2022-11-21T03:54:20.927Z,2.07
2022-11-21T03:59:22.672Z,1.80
2022-11-21T04:04:24.492Z,2.33
2022-11-21T04:09:26.257Z,1.93
2022-11-21T04:14:28.313Z,2.47
2022-11-21T04:19:30.346Z,1.60
2022-11-21T04:24:32.291Z,2.40
2022-11-21T04:29:34.103Z,1.80
2022-11-21T04:34:35.870Z,1.87
2022-11-21T04:39:37.604Z,2.07
2022-11-21T04:44:39.418Z,2.13
2022-11-21T04:49:41.519Z,2.07
2022-11-21T04:54:43.275Z,1.77
2022-11-21T04:59:45.038Z,1.90
2022-11-21T05:04:47.176Z,2.13
2022-11-21T05:09:49.130Z,2.03
2022-11-21T05:14:51.176Z,2.07
2022-11-21T05:19:53.091Z,2.40
2022-11-21T05:24:54.872Z,2.17
2022-11-21T05:29:56.836Z,2.20
2022-11-21T05:34:58.564Z,1.93
2022-11-21T05:40:00.499Z,2.27
2022-11-21T05:45:03.021Z,2.13
2022-11-21T05:50:05.150Z,2.13
2022-11-21T05:55:07.227Z,2.13
2022-11-21T06:00:09.658Z,2.10
2022-11-21T06:05:11.387Z,2.50
2022-11-21T06:10:13.173Z,2.60
2022-11-21T06:15:15.002Z,2.70
2022-11-21T06:20:16.995Z,2.07
2022-11-21T06:25:18.794Z,1.80
2022-11-21T06:30:22.359Z,2.30
2022-11-21T06:35:24.295Z,2.37
2022-11-21T06:40:26.223Z,2.00
2022-11-21T06:45:28.158Z,2.40
2022-11-21T06:50:33.738Z,2.53
2022-11-21T06:55:35.527Z,2.07
2022-11-21T07:00:37.416Z,1.73
2022-11-21T07:05:39.337Z,1.73
2022-11-21T07:10:57.244Z,2.63
2022-11-21T07:16:05.914Z,1.50
2022-11-21T07:21:08.374Z,2.27
2022-11-21T07:26:10.472Z,2.57
2022-11-21T07:31:14.267Z,2.03
2022-11-21T07:36:16.213Z,2.20
2022-11-21T07:41:18.059Z,2.47
2022-11-21T07:46:19.843Z,2.50
2022-11-21T07:51:21.640Z,2.63
2022-11-21T07:56:26.374Z,2.23
2022-11-21T08:01:28.308Z,2.23
2022-11-21T08:06:30.248Z,2.57
2022-11-21T08:11:32.399Z,2.63
2022-11-21T08:16:34.206Z,2.80
2022-11-21T08:21:36.166Z,3.47
2022-11-21T08:26:38.107Z,2.83
2022-11-21T08:31:40.459Z,2.87
2022-11-21T08:36:42.419Z,3.30
2022-11-21T08:42:02.591Z,4.33
2022-11-21T08:47:04.555Z,4.10
2022-11-21T08:52:06.460Z,4.33
2022-11-21T08:57:08.216Z,3.50
2022-11-21T09:02:11.505Z,3.07
2022-11-21T09:07:13.623Z,3.67
2022-11-21T09:12:15.385Z,3.13
2022-11-21T09:17:35.842Z,3.17
2022-11-21T09:22:37.769Z,2.60
2022-11-21T09:27:39.506Z,3.27
2022-11-21T09:32:41.517Z,3.10
2022-11-21T09:37:43.428Z,3.07
2022-11-21T09:43:06.250Z,2.40
2022-11-21T09:48:14.523Z,2.50
2022-11-21T09:53:21.015Z,3.50
2022-11-21T09:58:41.566Z,2.90
2022-11-21T10:03:52.256Z,2.97
2022-11-21T10:09:27.576Z,4.10
2022-11-21T10:14:58.796Z,5.00
2022-11-21T10:20:22.318Z,4.40
2022-11-21T10:25:28.222Z,4.87
2022-11-21T10:30:30.159Z,3.73
2022-11-21T10:35:44.140Z,4.30
2022-11-21T10:40:49.319Z,4.60
2022-11-21T10:45:51.483Z,5.90
2022-11-21T10:51:06.290Z,6.17
2022-11-21T10:56:12.598Z,5.67
2022-11-21T11:01:24.993Z,5.10
2022-11-21T11:06:29.935Z,6.00
2022-11-21T11:11:32.147Z,4.60
2022-11-21T11:16:41.435Z,4.97
2022-11-21T11:21:45.602Z,4.27
2022-11-21T11:26:48.696Z,4.80
2022-11-21T11:31:56.250Z,4.30
2022-11-21T11:37:11.064Z,4.90
2022-11-21T11:42:31.788Z,4.83
2022-11-21T11:47:43.055Z,4.53
2022-11-21T11:53:23.699Z,4.40
2022-11-21T11:58:47.779Z,4.73
2022-11-21T12:04:01.898Z,4.10
2022-11-21T12:09:38.017Z,4.13
2022-11-21T12:15:36.536Z,3.57
2022-11-21T12:21:15.234Z,4.07
2022-11-21T12:26:20.215Z,3.40
2022-11-21T12:31:40.403Z,2.97
2022-11-21T12:37:33.110Z,2.80
2022-11-21T12:42:49.599Z,3.10
2022-11-21T12:48:39.421Z,3.07
2022-11-21T12:54:08.919Z,3.27
2022-11-21T12:59:14.479Z,3.50
2022-11-21T13:04:21.926Z,3.20
2022-11-21T13:09:27.471Z,3.93
2022-11-21T13:14:48.256Z,3.60
2022-11-21T13:19:57.290Z,3.23
2022-11-21T13:24:59.432Z,3.30
2022-11-21T13:30:07.540Z,3.83
2022-11-21T13:35:21.582Z,2.93
2022-11-21T13:40:26.367Z,3.13
2022-11-21T13:45:40.329Z,3.10
2022-11-21T13:50:59.996Z,2.60
2022-11-21T13:56:30.095Z,2.70
2022-11-21T14:01:48.566Z,2.27
2022-11-21T14:06:50.681Z,2.63
2022-11-21T14:11:52.402Z,2.33
2022-11-21T14:17:20.308Z,2.17
2022-11-21T14:22:45.192Z,2.30
2022-11-21T14:27:51.441Z,1.43
2022-11-21T14:32:54.503Z,2.60
2022-11-21T14:37:57.975Z,2.50
2022-11-21T14:43:01.193Z,3.17
2022-11-21T14:48:12.599Z,2.27
2022-11-21T14:53:14.441Z,2.10
2022-11-21T14:58:16.831Z,2.53
2022-11-21T15:03:21.761Z,3.03
2022-11-21T15:14:14.489Z,2.83
2022-11-21T15:19:21.113Z,2.77
2022-11-21T15:24:42.210Z,1.93
2022-11-21T15:29:43.988Z,2.53
2022-11-21T15:34:47.347Z,2.10
2022-11-21T15:39:50.626Z,2.27
2022-11-21T15:50:41.107Z,1.90
2022-11-21T15:55:43.076Z,2.00
2022-11-21T15:57:13.703Z,1.90
2022-11-21T16:00:44.866Z,2.17
2022-11-21T16:05:48.047Z,2.10
2022-11-21T16:10:50.176Z,2.10
2022-11-21T16:15:51.958Z,1.90
2022-11-21T16:20:53.879Z,2.10
2022-11-21T16:25:55.796Z,1.77
2022-11-21T16:30:58.694Z,2.37
2022-11-21T16:36:00.765Z,2.23
2022-11-21T16:41:05.315Z,2.03
2022-11-21T16:46:09.151Z,2.47
2022-11-21T16:51:15.771Z,2.53
2022-11-21T16:56:17.766Z,4.43
2022-11-21T17:01:25.123Z,3.53
2022-11-21T17:06:30.291Z,4.10
2022-11-21T17:11:32.282Z,3.57
2022-11-21T17:16:35.536Z,2.67
2022-11-21T17:21:37.552Z,2.37
2022-11-21T17:26:39.561Z,2.27
2022-11-21T17:31:42.128Z,2.10
2022-11-21T17:36:44.064Z,2.33
2022-11-21T17:41:46.055Z,2.30
2022-11-21T17:46:48.106Z,1.87
2022-11-21T17:51:56.335Z,2.40
2022-11-21T17:57:00.030Z,2.47
2022-11-21T18:02:02.202Z,2.63
2022-11-21T18:07:04.159Z,2.57
2022-11-21T18:12:06.459Z,2.67
2022-11-21T18:17:08.441Z,2.87
2022-11-21T18:22:10.333Z,2.07
2022-11-21T18:27:12.171Z,1.90
2022-11-21T18:32:13.999Z,2.00
2022-11-21T18:37:15.753Z,2.07
2022-11-21T18:42:17.753Z,1.70
2022-11-21T18:47:20.999Z,2.17
2022-11-21T18:52:23.094Z,2.00
2022-11-21T18:57:24.865Z,1.87
2022-11-21T19:02:26.748Z,3.10
2022-11-21T19:07:28.805Z,2.03
2022-11-21T19:12:33.821Z,1.70
2022-11-21T19:17:38.233Z,2.33
2022-11-21T19:22:40.088Z,1.97
2022-11-21T19:27:41.909Z,1.03
2022-11-21T19:32:43.819Z,1.90
2022-11-21T19:37:45.935Z,1.33
2022-11-21T19:42:47.729Z,1.83
2022-11-21T19:47:56.823Z,1.37
2022-11-21T19:52:58.800Z,1.77
2022-11-21T19:58:00.718Z,1.30
2022-11-21T20:03:02.638Z,1.57
2022-11-21T20:08:14.216Z,1.20
2022-11-21T20:13:19.094Z,1.87
2022-11-21T20:18:20.853Z,1.53
2022-11-21T20:23:22.876Z,1.30
2022-11-21T20:28:24.673Z,1.17
2022-11-21T20:33:26.589Z,0.73
2022-11-21T20:38:28.804Z,1.40
2022-11-21T20:44:02.727Z,0.77
2022-11-21T20:48:53.623Z,1.63
2022-11-21T20:54:01.635Z,1.77
2022-11-21T20:59:05.486Z,1.00
2022-11-21T21:04:09.241Z,0.90
2022-11-21T21:09:10.990Z,0.50
2022-11-21T21:14:12.743Z,0.43
2022-11-21T21:19:14.536Z,1.03
2022-11-21T21:24:17.125Z,0.93
2022-11-21T21:29:21.053Z,0.77
2022-11-21T21:34:23.259Z,1.17
2022-11-21T21:39:25.499Z,1.27
2022-11-21T21:44:32.944Z,1.00
2022-11-21T21:49:35.097Z,0.77
2022-11-21T21:54:36.999Z,1.20
2022-11-21T21:59:39.074Z,0.60
2022-11-21T22:04:40.976Z,0.60
2022-11-21T22:09:42.729Z,1.20
2022-11-21T22:14:44.484Z,0.73
2022-11-21T22:19:46.250Z,1.20
2022-11-21T22:24:48.033Z,1.47
2022-11-21T22:29:49.945Z,1.30
2022-11-21T22:34:51.867Z,0.90
2022-11-21T22:39:53.886Z,1.40
2022-11-21T22:44:55.679Z,0.70
2022-11-21T22:49:57.864Z,1.30
2022-11-21T22:54:59.951Z,1.67
2022-11-21T23:00:02.268Z,1.30
2022-11-21T23:05:04.591Z,1.30
2022-11-21T23:10:06.889Z,1.20
2022-11-21T23:15:09.317Z,0.97
2022-11-21T23:20:11.572Z,1.30
2022-11-21T23:25:13.388Z,1.00
2022-11-21T23:30:15.293Z,1.60
2022-11-21T23:35:17.194Z,1.93
2022-11-21T23:40:19.188Z,0.90
2022-11-21T23:45:21.162Z,0.67
2022-11-21T23:50:23.132Z,1.20
2022-11-21T23:55:24.891Z,1.10
